Time;durP1;ratioP1;P1;durP2;ratioP2;P2;SDS_P1;SDS_P2;PMS_P1;PMS_P2;Temp;Humidity;BMP_temperature;BMP_pressure;BME280_temperature;BME280_humidity;BME280_pressure;Samples;Min_cycle;Max_cycle;Signal;HPM_P1;HPM_P2
2022/12/29 00:02:02;;;;;;;24.53;12.17;;;;;;;6.92;51.17;102375.00;5051386;28;20416;-77
2022/12/29 00:04:28;;;;;;;27.43;13.63;;;;;;;6.72;51.42;102376.34;5055958;28;20377;-77
2022/12/29 00:06:54;;;;;;;31.33;14.23;;;;;;;6.74;51.65;102383.22;5050510;28;20901;-77
2022/12/29 00:09:20;;;;;;;29.73;13.63;;;;;;;6.88;51.51;102369.09;5051786;28;20729;-77
2022/12/29 00:11:46;;;;;;;29.58;13.95;;;;;;;7.02;51.16;102379.53;5050960;28;20381;-78
2022/12/29 00:16:56;;;;;;;30.38;14.05;;;;;;;6.91;50.89;102368.03;5050909;28;20400;-77
2022/12/29 00:36:01;;;;;;;22.97;12.63;;;;;;;6.46;51.89;102384.19;5046128;28;20402;-77
2022/12/29 00:44:05;;;;;;;41.30;22.58;;;;;;;6.18;53.20;102387.81;5032897;28;20569;-77
2022/12/29 00:46:32;;;;;;;24.92;15.35;;;;;;;6.12;53.08;102387.28;5031418;28;20422;-77
2022/12/29 00:51:41;;;;;;;32.30;17.80;;;;;;;6.28;53.21;102386.25;5049835;28;20387;-77
2022/12/29 00:54:07;;;;;;;31.27;15.60;;;;;;;6.23;53.01;102393.59;5051300;28;20408;-77
2022/12/29 00:56:32;;;;;;;30.23;16.97;;;;;;;6.15;53.71;102391.47;5050850;28;20380;-78
2022/12/29 00:59:05;;;;;;;65.43;36.07;;;;;;;6.18;53.54;102374.66;5034038;28;20413;-77
2022/12/29 01:01:31;;;;;;;45.42;26.30;;;;;;;6.17;53.14;102381.69;5031259;28;20425;-77
2022/12/29 01:03:56;;;;;;;33.83;19.67;;;;;;;6.04;53.40;102383.44;5031507;28;20461;-77
2022/12/29 01:06:22;;;;;;;28.02;16.75;;;;;;;5.98;53.66;102384.69;5031074;28;20397;-77
2022/12/29 01:10:09;;;;;;;24.35;13.77;;;;;;;5.81;54.34;102380.47;5031388;28;20799;-77
2022/12/29 01:11:33;;;;;;;25.08;14.30;;;;;;;5.71;54.06;102385.47;5050908;28;20449;-77
2022/12/29 01:13:58;;;;;;;29.50;16.00;;;;;;;5.73;53.89;102385.38;5050302;28;20420;-77
2022/12/29 01:16:24;;;;;;;29.83;16.03;;;;;;;5.73;54.22;102386.22;5051278;28;20376;-77
2022/12/29 01:18:49;;;;;;;31.08;16.45;;;;;;;5.67;54.18;102378.72;5050237;28;20837;-77
2022/12/29 01:21:15;;;;;;;29.93;14.80;;;;;;;5.64;54.10;102376.28;5049123;28;20685;-77
2022/12/29 01:23:40;;;;;;;26.90;14.70;;;;;;;5.58;54.20;102375.81;5051269;28;20438;-78
2022/12/29 01:26:15;;;;;;;30.55;15.50;;;;;;;5.38;54.62;102377.88;5051766;28;20386;-77
2022/12/29 01:28:41;;;;;;;27.00;14.30;;;;;;;5.25;55.05;102374.34;5051647;28;20476;-77
2022/12/29 01:31:11;;;;;;;26.30;14.25;;;;;;;5.11;55.41;102368.16;5051517;28;20368;-78
2022/12/29 01:33:37;;;;;;;28.73;17.43;;;;;;;5.04;55.09;102358.94;5051059;28;20404;-77
2022/12/29 01:36:04;;;;;;;22.57;12.93;;;;;;;5.00;54.83;102372.34;5051371;28;20392;-77
2022/12/29 01:38:31;;;;;;;23.55;12.63;;;;;;;4.93;55.20;102370.13;5051397;28;20459;-77
2022/12/29 01:40:56;;;;;;;18.52;11.38;;;;;;;4.72;55.99;102368.78;5051328;28;20375;-78
2022/12/29 01:43:38;;;;;;;21.57;11.87;;;;;;;4.75;55.69;102369.44;5051117;28;20368;-77
2022/12/29 01:46:04;;;;;;;19.50;11.10;;;;;;;4.62;56.07;102372.88;5047853;28;20458;-77
2022/12/29 01:48:29;;;;;;;19.55;10.73;;;;;;;4.59;55.39;102366.84;5031302;28;20381;-78
2022/12/29 01:50:55;;;;;;;19.07;10.47;;;;;;;4.68;55.39;102357.59;5031637;28;20382;-78
2022/12/29 01:53:27;;;;;;;20.90;10.50;;;;;;;4.71;54.90;102348.69;5031497;28;20402;-78
2022/12/29 01:55:57;;;;;;;17.83;10.20;;;;;;;4.74;55.10;102344.09;5034494;28;20440;-77
2022/12/29 01:58:27;;;;;;;18.88;11.00;;;;;;;4.88;54.73;102338.00;5033327;28;20377;-77
2022/12/29 02:00:52;;;;;;;21.77;11.88;;;;;;;5.00;54.24;102331.16;5034030;28;20449;-78
2022/12/29 02:03:20;;;;;;;24.23;12.23;;;;;;;4.93;54.06;102322.81;5035676;28;20758;-77
2022/12/29 02:05:52;;;;;;;23.70;11.43;;;;;;;4.82;54.13;102322.59;5035862;28;20811;-77
2022/12/29 02:08:20;;;;;;;20.80;11.18;;;;;;;4.80;54.34;102324.47;5035124;28;20393;-77
2022/12/29 02:10:47;;;;;;;21.17;11.80;;;;;;;4.81;53.99;102318.28;5034873;28;20378;-77
2022/12/29 02:13:16;;;;;;;24.88;12.57;;;;;;;4.81;54.36;102323.56;5035751;28;20937;-77
2022/12/29 02:15:50;;;;;;;17.52;10.18;;;;;;;4.68;54.53;102326.06;5035732;28;20485;-77
2022/12/29 02:18:42;;;;;;;21.73;11.35;;;;;;;4.51;54.81;102321.81;5034640;28;20382;-77
2022/12/29 02:21:45;;;;;;;20.23;10.50;;;;;;;4.49;54.52;102331.56;5039817;28;20393;-77
2022/12/29 02:24:32;;;;;;;18.38;10.05;;;;;;;4.54;54.10;102311.13;5040654;28;20515;-78
2022/12/29 02:27:19;;;;;;;16.92;9.32;;;;;;;4.56;54.66;102321.53;5056104;28;20388;-78
2022/12/29 02:29:44;;;;;;;17.15;9.20;;;;;;;4.40;54.54;102313.72;5052205;28;20821;-78
2022/12/29 02:32:48;;;;;;;18.53;9.97;;;;;;;4.43;55.07;102325.81;5054207;28;20409;-77
2022/12/29 02:35:32;;;;;;;17.93;9.60;;;;;;;4.47;54.34;102324.72;5007086;28;20508;-77
2022/12/29 02:38:12;;;;;;;21.00;9.82;;;;;;;4.50;54.20;102320.13;5043375;28;20789;-78
2022/12/29 02:41:01;;;;;;;18.33;10.02;;;;;;;4.56;54.37;102322.38;5053934;28;20479;-78
2022/12/29 02:43:31;;;;;;;22.60;10.88;;;;;;;4.46;53.98;102326.47;5052844;28;20415;-77
2022/12/29 02:46:07;;;;;;;21.30;10.82;;;;;;;4.38;54.65;102320.84;5052561;28;20491;-77
2022/12/29 02:48:59;;;;;;;18.00;9.30;;;;;;;4.23;54.50;102322.56;5052220;28;20420;-78
2022/12/29 02:51:52;;;;;;;19.10;10.50;;;;;;;4.08;55.18;102326.09;5049906;28;20497;-77
2022/12/29 02:57:05;;;;;;;25.67;13.30;;;;;;;3.76;56.45;102321.75;5055273;28;20419;-78
2022/12/29 02:59:30;;;;;;;17.35;8.95;;;;;;;3.79;56.31;102325.97;5054671;28;20396;-77
2022/12/29 03:02:18;;;;;;;16.77;9.30;;;;;;;3.76;56.08;102319.13;5052249;28;20509;-76
2022/12/29 03:05:23;;;;;;;16.83;9.68;;;;;;;3.90;55.82;102322.72;5052922;28;20415;-77
2022/12/29 03:08:16;;;;;;;18.63;9.82;;;;;;;3.80;55.80;102315.38;5052630;28;20431;-77
2022/12/29 03:10:54;;;;;;;21.52;11.65;;;;;;;3.90;55.55;102313.06;5052086;28;20864;-77
2022/12/29 03:16:44;;;;;;;18.05;9.93;;;;;;;3.57;55.94;102315.81;5040418;28;20561;-76
2022/12/29 03:19:19;;;;;;;23.27;11.73;;;;;;;3.58;55.92;102320.13;5052597;28;20875;-77
2022/12/29 03:22:28;;;;;;;22.83;11.73;;;;;;;3.74;55.55;102322.75;5052387;28;20885;-76
2022/12/29 03:25:08;;;;;;;40.20;20.67;;;;;;;3.81;54.83;102329.34;5051263;28;20385;-76
2022/12/29 03:27:43;;;;;;;20.27;10.75;;;;;;;3.56;55.39;102320.22;5051262;28;20729;-77
2022/12/29 03:30:09;;;;;;;16.23;9.20;;;;;;;3.26;56.31;102325.38;5036544;28;20417;-76
2022/12/29 03:32:41;;;;;;;18.52;10.18;;;;;;;3.14;56.55;102318.16;5051970;28;20388;-76
2022/12/29 03:35:10;;;;;;;15.18;8.27;;;;;;;3.11;56.71;102326.19;5052162;28;20408;-76
2022/12/29 03:37:40;;;;;;;16.37;8.83;;;;;;;3.17;56.54;102324.09;5052100;28;20389;-76
2022/12/29 03:40:07;;;;;;;18.65;9.50;;;;;;;3.12;56.63;102317.41;5051750;28;20396;-77
2022/12/29 03:42:35;;;;;;;19.85;9.88;;;;;;;3.14;56.37;102319.00;5052431;28;20420;-76
2022/12/29 03:45:01;;;;;;;18.43;10.10;;;;;;;3.17;56.46;102316.22;5051828;28;20487;-77
2022/12/29 03:47:26;;;;;;;17.20;10.20;;;;;;;3.14;56.43;102320.78;5052050;28;20487;-76
2022/12/29 03:49:53;;;;;;;20.20;11.33;;;;;;;3.05;56.54;102314.25;5054020;28;20393;-77
2022/12/29 03:52:18;;;;;;;17.73;9.88;;;;;;;2.97;56.60;102324.28;5051635;28;20388;-77
2022/12/29 03:54:44;;;;;;;18.57;10.07;;;;;;;2.92;56.89;102323.66;5050783;28;20491;-77
2022/12/29 03:57:11;;;;;;;18.73;11.37;;;;;;;2.96;56.93;102333.91;5051952;28;20415;-77
2022/12/29 03:59:36;;;;;;;21.02;11.32;;;;;;;2.93;57.08;102338.47;5051502;28;20868;-77
2022/12/29 04:02:02;;;;;;;19.07;11.27;;;;;;;3.09;56.49;102335.91;5051525;28;20393;-77
2022/12/29 04:04:27;;;;;;;17.30;11.13;;;;;;;3.07;56.50;102330.72;5052205;28;20392;-77
2022/12/29 04:06:53;;;;;;;23.67;11.60;;;;;;;3.07;56.30;102335.97;5049917;28;20471;-77
2022/12/29 04:09:18;;;;;;;19.88;11.82;;;;;;;3.12;56.11;102346.22;5047377;28;20385;-77
2022/12/29 04:11:44;;;;;;;23.77;12.30;;;;;;;2.97;56.22;102340.88;5052041;28;20507;-77
2022/12/29 04:14:09;;;;;;;21.30;12.53;;;;;;;3.00;56.45;102345.91;5051694;28;20428;-77
2022/12/29 04:16:38;;;;;;;27.00;14.97;;;;;;;3.00;56.41;102343.28;5051690;28;20454;-77
2022/12/29 04:19:05;;;;;;;28.25;14.80;;;;;;;3.11;56.01;102357.63;5051864;28;20385;-77
2022/12/29 04:21:30;;;;;;;21.98;13.10;;;;;;;3.10;55.82;102346.28;5051695;28;20381;-77
2022/12/29 04:23:56;;;;;;;20.63;12.23;;;;;;;3.01;55.96;102347.63;5051074;28;20401;-78
2022/12/29 04:26:21;;;;;;;18.60;10.83;;;;;;;2.85;56.63;102342.34;5052080;28;20440;-77
2022/12/29 04:28:47;;;;;;;20.02;11.23;;;;;;;2.84;56.58;102342.41;5051150;28;20384;-76
2022/12/29 04:31:12;;;;;;;19.93;11.27;;;;;;;2.84;56.61;102340.63;5051540;28;20864;-76
2022/12/29 04:33:38;;;;;;;22.77;12.47;;;;;;;2.87;56.55;102334.41;5041713;28;20502;-77
2022/12/29 04:36:03;;;;;;;19.07;12.13;;;;;;;2.87;56.57;102332.63;5044333;28;20404;-76
2022/12/29 04:38:29;;;;;;;21.80;13.50;;;;;;;2.97;56.21;102345.22;5039642;28;20474;-78
2022/12/29 04:40:54;;;;;;;23.80;14.63;;;;;;;2.99;56.21;102340.75;5042326;28;20378;-77
2022/12/29 04:43:21;;;;;;;22.90;13.43;;;;;;;3.04;56.06;102346.59;5041289;28;20382;-76
2022/12/29 04:45:47;;;;;;;25.13;17.27;;;;;;;3.10;55.97;102346.28;5039068;28;20390;-77
2022/12/29 04:48:13;;;;;;;20.48;13.25;;;;;;;3.07;55.97;102349.06;5045580;28;20442;-77
2022/12/29 04:50:40;;;;;;;28.48;16.65;;;;;;;3.00;56.25;102347.69;5040825;28;20439;-77
2022/12/29 04:53:05;;;;;;;30.15;16.58;;;;;;;2.99;56.24;102341.63;5040085;28;20406;-77
2022/12/29 04:55:31;;;;;;;27.83;17.63;;;;;;;3.11;55.75;102355.00;5039652;28;20458;-77
2022/12/29 04:57:56;;;;;;;25.17;13.43;;;;;;;3.05;56.11;102362.25;5041243;28;20857;-77
2022/12/29 05:00:22;;;;;;;22.23;13.70;;;;;;;3.00;56.10;102355.56;5040431;28;20440;-77
2022/12/29 05:02:47;;;;;;;23.42;13.27;;;;;;;2.98;56.23;102362.66;5049009;28;20380;-77
2022/12/29 05:05:13;;;;;;;30.80;17.45;;;;;;;2.91;56.28;102361.28;5048980;28;20423;-77
2022/12/29 05:07:39;;;;;;;38.85;19.83;;;;;;;2.90;56.19;102365.69;5049807;28;20384;-77
2022/12/29 05:10:05;;;;;;;23.52;14.88;;;;;;;2.86;56.34;102364.13;5049507;28;20377;-75
2022/12/29 05:12:32;;;;;;;24.17;15.30;;;;;;;2.85;56.50;102370.31;5049630;28;20417;-77
2022/12/29 05:14:58;;;;;;;25.30;15.60;;;;;;;2.76;56.63;102366.38;5049788;28;20474;-77
2022/12/29 05:17:23;;;;;;;25.88;16.25;;;;;;;2.79;56.48;102370.59;5050603;28;20805;-77
2022/12/29 05:19:49;;;;;;;26.63;15.80;;;;;;;2.82;56.50;102381.75;5046676;28;20708;-77
2022/12/29 05:22:14;;;;;;;28.43;17.53;;;;;;;2.78;56.40;102385.47;5047363;28;20394;-77
2022/12/29 05:24:39;;;;;;;32.63;18.00;;;;;;;2.83;56.28;102383.47;5049043;28;20452;-77
2022/12/29 05:27:05;;;;;;;31.38;17.00;;;;;;;2.84;56.09;102382.53;5049552;28;20756;-77
2022/12/29 05:29:30;;;;;;;31.45;17.23;;;;;;;2.82;56.10;102373.06;5049360;28;20389;-77
2022/12/29 05:31:56;;;;;;;28.60;16.33;;;;;;;2.80;56.42;102374.94;5048817;28;20385;-77
2022/12/29 05:34:21;;;;;;;33.77;18.50;;;;;;;2.80;56.42;102370.53;5049907;28;20396;-77
2022/12/29 05:36:47;;;;;;;29.93;16.67;;;;;;;2.79;56.40;102376.72;5050447;28;20377;-77
2022/12/29 05:39:12;;;;;;;29.20;16.67;;;;;;;2.72;56.73;102379.69;5049927;28;20383;-77
2022/12/29 05:41:38;;;;;;;30.10;17.07;;;;;;;2.71;56.80;102371.00;5049654;28;20408;-76
2022/12/29 05:44:03;;;;;;;32.37;18.37;;;;;;;2.76;56.26;102374.22;5053289;28;20385;-77
2022/12/29 05:46:29;;;;;;;27.93;15.97;;;;;;;2.67;56.63;102383.41;5049942;28;20384;-77
2022/12/29 05:48:54;;;;;;;24.43;15.97;;;;;;;2.60;56.73;102381.19;5050041;28;20773;-77
2022/12/29 05:51:20;;;;;;;25.23;15.67;;;;;;;2.66;56.59;102380.84;5047679;28;20381;-77
2022/12/29 05:53:45;;;;;;;24.88;15.52;;;;;;;2.71;56.28;102388.50;5049485;28;20396;-77
2022/12/29 05:56:11;;;;;;;30.13;18.10;;;;;;;2.73;56.28;102386.63;5042274;28;20404;-77
2022/12/29 05:58:36;;;;;;;34.67;18.67;;;;;;;2.81;56.12;102382.72;5048855;28;20373;-77
2022/12/29 06:01:02;;;;;;;35.90;18.37;;;;;;;2.81;56.20;102381.84;5050951;28;20405;-77
2022/12/29 06:03:27;;;;;;;35.27;18.60;;;;;;;2.74;56.19;102389.19;5052265;28;20381;-77
2022/12/29 06:05:53;;;;;;;35.50;20.70;;;;;;;2.76;56.27;102381.25;5049817;28;20384;-77
2022/12/29 06:08:18;;;;;;;34.90;20.93;;;;;;;2.82;56.19;102384.38;5048632;28;20399;-77
2022/12/29 06:10:43;;;;;;;36.47;21.10;;;;;;;2.90;55.95;102384.00;5049297;28;20381;-76
2022/12/29 06:13:09;;;;;;;39.53;24.00;;;;;;;2.93;55.76;102386.44;5049807;28;20415;-77
2022/12/29 06:15:35;;;;;;;41.65;25.25;;;;;;;2.98;55.56;102383.63;5050390;28;20416;-77
2022/12/29 06:18:00;;;;;;;36.40;22.15;;;;;;;2.92;55.51;102390.03;5050500;28;20479;-77
2022/12/29 06:20:26;;;;;;;33.33;18.85;;;;;;;2.78;55.83;102388.09;5050052;28;20377;-76
2022/12/29 06:22:51;;;;;;;27.63;14.05;;;;;;;2.70;56.04;102387.63;5050287;28;20385;-76
2022/12/29 06:25:17;;;;;;;23.53;13.17;;;;;;;2.73;55.85;102390.09;5048939;28;20381;-76
2022/12/29 06:27:43;;;;;;;22.90;14.13;;;;;;;2.68;55.79;102394.72;5050317;28;20442;-77
2022/12/29 06:30:10;;;;;;;418.70;200.82;;;;;;;2.74;55.60;102390.94;5050491;28;20391;-76
2022/12/29 06:32:36;;;;;;;480.05;251.77;;;;;;;2.82;55.68;102389.63;5049557;28;20887;-76
2022/12/29 06:35:02;;;;;;;712.13;402.80;;;;;;;2.85;55.34;102401.72;5049631;28;20377;-76
2022/12/29 06:37:28;;;;;;;109.38;53.60;;;;;;;2.77;55.72;102403.88;5049267;28;20384;-77
2022/12/29 06:39:54;;;;;;;26.98;16.40;;;;;;;2.64;55.92;102399.25;5049261;28;20446;-77
2022/12/29 06:42:19;;;;;;;29.37;16.37;;;;;;;2.56;56.18;102403.22;5050289;28;20388;-76
2022/12/29 06:44:45;;;;;;;25.48;14.73;;;;;;;2.40;56.10;102403.09;5050452;28;20373;-77
2022/12/29 06:47:10;;;;;;;25.30;14.30;;;;;;;2.31;56.26;102411.41;5052443;28;20442;-77
2022/12/29 06:49:36;;;;;;;27.05;14.50;;;;;;;2.33;56.77;102413.03;5054955;28;20400;-76
2022/12/29 06:52:03;;;;;;;25.52;16.70;;;;;;;2.31;56.61;102409.63;5053997;28;20381;-77
2022/12/29 06:54:32;;;;;;;26.23;15.13;;;;;;;2.47;56.26;102413.19;5032940;28;20433;-77
2022/12/29 06:56:58;;;;;;;32.23;15.53;;;;;;;2.53;56.19;102416.44;5034220;28;20370;-76
2022/12/29 06:59:24;;;;;;;34.15;18.15;;;;;;;2.41;56.14;102408.28;5034046;28;20385;-77
2022/12/29 07:01:50;;;;;;;32.78;16.70;;;;;;;2.41;56.31;102410.03;5034157;28;20371;-78
2022/12/29 07:04:15;;;;;;;32.42;17.13;;;;;;;2.39;56.51;102415.31;5050468;28;20378;-76
2022/12/29 07:06:41;;;;;;;36.97;17.83;;;;;;;2.29;56.69;102416.72;5054144;28;20389;-76
2022/12/29 07:09:08;;;;;;;41.23;19.60;;;;;;;2.26;56.93;102420.31;5054757;28;20377;-77
2022/12/29 07:11:34;;;;;;;44.78;22.45;;;;;;;2.23;57.16;102414.38;5054556;28;20379;-77
2022/12/29 07:13:59;;;;;;;54.10;26.10;;;;;;;2.38;56.84;102418.88;5053309;28;20499;-75
2022/12/29 07:16:25;;;;;;;47.93;24.10;;;;;;;2.64;56.26;102422.81;5053891;28;20439;-78
2022/12/29 07:18:51;;;;;;;41.37;22.17;;;;;;;2.76;55.85;102415.28;5053520;28;20395;-77
2022/12/29 07:21:17;;;;;;;41.40;22.52;;;;;;;2.81;55.88;102415.88;5053510;28;20396;-78
2022/12/29 07:23:42;;;;;;;47.88;24.40;;;;;;;2.84;55.79;102411.34;5053962;28;20373;-78
2022/12/29 07:26:12;;;;;;;40.65;22.50;;;;;;;2.78;56.16;102411.66;5053747;28;20424;-76
2022/12/29 07:28:38;;;;;;;49.70;26.95;;;;;;;2.79;56.32;102420.34;5052772;28;20849;-77
2022/12/29 07:31:04;;;;;;;52.47;26.97;;;;;;;2.75;56.68;102406.56;5052697;28;20373;-77
2022/12/29 07:33:29;;;;;;;48.28;28.63;;;;;;;2.94;56.53;102424.00;5053458;28;20427;-79
2022/12/29 07:35:55;;;;;;;47.72;25.92;;;;;;;3.08;56.21;102418.03;5053513;28;20469;-76
2022/12/29 07:38:20;;;;;;;34.92;19.80;;;;;;;3.09;56.17;102425.81;5053603;28;20388;-76
2022/12/29 07:40:46;;;;;;;33.67;20.95;;;;;;;3.16;56.11;102424.56;5057988;28;20420;-76
2022/12/29 07:43:11;;;;;;;52.10;28.83;;;;;;;3.29;55.92;102419.53;5055101;28;20381;-78
2022/12/29 07:45:37;;;;;;;48.83;25.87;;;;;;;3.31;55.68;102415.06;5054570;28;20389;-77
2022/12/29 07:48:05;;;;;;;42.27;24.77;;;;;;;3.40;55.76;102411.09;5043242;28;20382;-77
2022/12/29 07:50:31;;;;;;;53.35;28.52;;;;;;;3.34;56.00;102414.06;5041771;28;20438;-76
2022/12/29 07:52:56;;;;;;;44.53;24.40;;;;;;;3.29;56.06;102414.28;5047645;28;20782;-77
2022/12/29 07:55:22;;;;;;;37.70;21.40;;;;;;;3.30;56.12;102415.16;5071990;28;20812;-76
2022/12/29 07:57:47;;;;;;;46.70;26.73;;;;;;;3.38;56.26;102418.22;5049058;28;20438;-78
2022/12/29 08:00:13;;;;;;;45.50;24.20;;;;;;;3.42;55.91;102411.88;5047354;28;20402;-77
2022/12/29 08:02:39;;;;;;;44.17;24.30;;;;;;;3.35;56.28;102407.88;5052244;28;20439;-76
2022/12/29 08:05:05;;;;;;;41.47;24.57;;;;;;;3.52;56.17;102413.06;5052614;28;20412;-77
2022/12/29 08:07:30;;;;;;;27.98;17.27;;;;;;;3.66;55.96;102416.75;5051406;28;20384;-77
2022/12/29 08:09:56;;;;;;;30.97;20.47;;;;;;;3.83;55.73;102412.28;5050212;28;20435;-76
2022/12/29 08:12:21;;;;;;;31.47;20.90;;;;;;;3.88;55.56;102404.16;5051793;28;20389;-77
2022/12/29 08:14:47;;;;;;;34.53;21.60;;;;;;;3.96;55.78;102420.31;5052049;28;20584;-75
2022/12/29 08:17:12;;;;;;;26.08;16.95;;;;;;;3.96;55.54;102404.59;5051272;28;20393;-77
2022/12/29 08:19:38;;;;;;;31.53;17.13;;;;;;;4.12;55.67;102417.66;5050765;28;20396;-77
2022/12/29 08:22:03;;;;;;;21.57;14.67;;;;;;;4.21;55.70;102409.31;5052152;28;20423;-76
2022/12/29 08:24:29;;;;;;;28.27;15.63;;;;;;;4.26;55.45;102411.66;5050066;28;20373;-77
2022/12/29 08:26:54;;;;;;;27.17;15.93;;;;;;;4.33;55.18;102409.53;5050682;28;20381;-76
2022/12/29 08:29:21;;;;;;;26.98;15.52;;;;;;;4.37;55.27;102416.28;5051606;28;20746;-78
2022/12/29 08:31:47;;;;;;;26.73;16.13;;;;;;;4.38;55.59;102415.38;5051101;28;20477;-78
2022/12/29 08:34:13;;;;;;;25.58;16.02;;;;;;;4.49;55.10;102415.59;5051720;28;20396;-80
2022/12/29 08:36:38;;;;;;;24.85;15.57;;;;;;;4.72;55.28;102418.69;5048190;28;20741;-79
2022/12/29 08:39:04;;;;;;;23.52;14.30;;;;;;;4.89;54.88;102417.69;5052176;28;20837;-78
2022/12/29 08:41:29;;;;;;;24.50;15.37;;;;;;;5.01;55.13;102409.06;5052908;28;20380;-77
2022/12/29 08:43:55;;;;;;;24.20;14.63;;;;;;;5.07;54.71;102413.94;5053336;28;20377;-77
2022/12/29 08:46:20;;;;;;;19.75;13.00;;;;;;;5.09;54.83;102408.59;5050920;28;20958;-77
2022/12/29 08:48:46;;;;;;;22.67;13.75;;;;;;;5.24;54.61;102404.19;5052635;28;20392;-77
2022/12/29 08:51:11;;;;;;;49.80;31.10;;;;;;;5.14;54.42;102398.66;5053327;28;20391;-76
2022/12/29 08:53:37;;;;;;;24.93;16.30;;;;;;;5.10;54.80;102394.53;5053448;28;20397;-77
2022/12/29 08:56:05;;;;;;;27.17;19.10;;;;;;;5.09;54.39;102400.72;5051176;28;20511;-77
2022/12/29 08:58:31;;;;;;;26.83;16.70;;;;;;;5.40;54.15;102398.84;5051661;28;20639;-78
2022/12/29 09:00:58;;;;;;;35.17;21.00;;;;;;;5.57;53.66;102390.75;5052805;28;20381;-77
2022/12/29 09:03:25;;;;;;;29.08;18.60;;;;;;;5.77;53.84;102388.66;5052012;28;20443;-77
2022/12/29 09:05:52;;;;;;;29.92;19.58;;;;;;;5.93;53.26;102387.56;5052470;28;20380;-78
2022/12/29 09:08:17;;;;;;;29.33;16.27;;;;;;;5.95;53.15;102387.47;5052740;28;20380;-78
2022/12/29 09:10:44;;;;;;;26.53;16.23;;;;;;;6.03;53.20;102379.13;5052688;28;20418;-78
2022/12/29 09:13:11;;;;;;;24.98;16.55;;;;;;;6.12;52.80;102381.16;5052970;28;20432;-78
2022/12/29 09:15:37;;;;;;;28.42;16.30;;;;;;;6.20;52.23;102367.50;5052127;28;20416;-79
2022/12/29 09:18:03;;;;;;;28.17;17.60;;;;;;;6.32;52.50;102369.34;5052919;28;20836;-78
2022/12/29 09:20:28;;;;;;;27.80;18.07;;;;;;;6.38;52.13;102365.44;5054198;28;20384;-77
2022/12/29 09:22:54;;;;;;;26.67;18.10;;;;;;;6.47;52.00;102362.19;5052686;28;20786;-81
2022/12/29 09:25:19;;;;;;;30.10;17.42;;;;;;;6.58;51.92;102358.84;5049531;28;20421;-78
2022/12/29 09:27:47;;;;;;;35.88;18.65;;;;;;;6.63;51.64;102341.78;5047447;28;20389;-78
2022/12/29 09:30:14;;;;;;;32.90;18.73;;;;;;;6.69;51.44;102337.88;5052102;28;20907;-78
2022/12/29 09:32:40;;;;;;;27.88;18.70;;;;;;;6.76;51.45;102339.13;5051550;28;20903;-76
2022/12/29 09:35:06;;;;;;;29.13;19.85;;;;;;;6.78;51.40;102339.03;5051901;28;20416;-78
2022/12/29 09:37:32;;;;;;;30.07;17.97;;;;;;;6.70;51.07;102329.88;5052477;28;20381;-77
2022/12/29 09:39:57;;;;;;;31.13;19.50;;;;;;;6.82;51.21;102328.16;5050823;28;20412;-76
2022/12/29 09:42:44;;;;;;;30.57;18.77;;;;;;;6.89;51.28;102324.16;5053535;28;20377;-77
2022/12/29 09:45:24;;;;;;;34.60;18.60;;;;;;;7.06;51.10;102330.06;5039613;28;20443;-77
2022/12/29 09:47:50;;;;;;;32.22;18.60;;;;;;;7.12;50.98;102312.97;5051666;28;20384;-77
2022/12/29 09:50:30;;;;;;;29.02;17.98;;;;;;;7.19;50.44;102309.78;5051041;28;20385;-77
2022/12/29 09:53:06;;;;;;;29.83;18.27;;;;;;;7.23;50.47;102311.25;5050959;28;20385;-76
2022/12/29 09:55:39;;;;;;;29.70;19.15;;;;;;;7.09;50.05;102306.09;5051630;28;20384;-78
2022/12/29 09:58:29;;;;;;;28.95;18.40;;;;;;;7.04;50.16;102301.16;5050187;28;20476;-77
2022/12/29 10:01:02;;;;;;;30.27;19.15;;;;;;;7.17;50.21;102298.50;5064968;28;20389;-76
2022/12/29 10:03:54;;;;;;;32.88;20.33;;;;;;;7.31;49.84;102294.91;5053558;28;20427;-77
2022/12/29 10:06:24;;;;;;;29.95;19.60;;;;;;;7.32;49.93;102293.09;5050434;28;20388;-78
2022/12/29 10:09:10;;;;;;;34.35;20.48;;;;;;;7.40;49.56;102294.25;5049808;28;20808;-78
2022/12/29 10:11:35;;;;;;;33.93;20.70;;;;;;;7.49;49.46;102292.75;5051401;28;20473;-78
2022/12/29 10:14:13;;;;;;;31.90;20.97;;;;;;;7.57;49.52;102277.16;5050410;28;20473;-76
2022/12/29 10:16:58;;;;;;;35.35;21.45;;;;;;;7.64;49.26;102286.31;5050311;28;20397;-77
2022/12/29 10:20:11;;;;;;;34.90;20.25;;;;;;;7.69;49.03;102279.88;5050974;28;20876;-79
2022/12/29 10:23:00;;;;;;;29.58;19.60;;;;;;;7.64;49.31;102267.84;5039143;28;20392;-78
2022/12/29 10:25:30;;;;;;;30.77;19.88;;;;;;;7.73;49.25;102268.16;5054125;28;20388;-77
2022/12/29 10:28:00;;;;;;;38.50;24.27;;;;;;;7.72;48.90;102272.56;5054445;28;20395;-77
2022/12/29 10:30:25;;;;;;;28.52;19.63;;;;;;;7.76;48.99;102263.47;5052233;28;20386;-77
2022/12/29 10:33:01;;;;;;;32.40;20.75;;;;;;;7.65;48.73;102271.31;5056404;28;20414;-77
2022/12/29 10:35:37;;;;;;;33.75;20.83;;;;;;;7.64;48.96;102261.75;5056378;28;20365;-77
2022/12/29 10:38:02;;;;;;;34.35;21.85;;;;;;;7.72;48.80;102247.97;5054855;28;20368;-77
2022/12/29 10:40:37;;;;;;;103.17;94.27;;;;;;;7.93;48.86;102256.94;5055540;28;20740;-78
2022/12/29 10:43:19;;;;;;;35.42;25.23;;;;;;;8.02;48.38;102239.56;5054889;28;20732;-78
2022/12/29 10:45:46;;;;;;;31.95;21.33;;;;;;;8.04;48.44;102241.13;5055536;28;20786;-78
2022/12/29 10:48:20;;;;;;;30.40;20.77;;;;;;;8.14;48.57;102243.06;5063993;28;20858;-77
2022/12/29 10:50:47;;;;;;;34.05;22.30;;;;;;;7.93;48.09;102225.25;5035339;28;20385;-76
2022/12/29 10:53:35;;;;;;;35.70;23.25;;;;;;;7.85;48.52;102233.75;5063909;28;20395;-76
2022/12/29 10:56:04;;;;;;;38.25;24.25;;;;;;;7.91;48.61;102232.44;5074732;28;20385;-77
2022/12/29 10:58:32;;;;;;;38.20;21.30;;;;;;;7.99;48.33;102231.88;5074586;28;20495;-78
2022/12/29 11:00:57;;;;;;;33.25;21.42;;;;;;;8.09;48.53;102232.88;5064602;28;20880;-78
2022/12/29 11:03:47;;;;;;;32.77;23.43;;;;;;;8.17;48.34;102227.81;5054698;28;20385;-76
2022/12/29 11:06:22;;;;;;;25.55;17.00;;;;;;;8.12;48.40;102222.06;5053182;28;20377;-76
2022/12/29 11:08:56;;;;;;;27.85;18.67;;;;;;;8.12;48.64;102221.22;5051461;28;20423;-77
2022/12/29 11:11:26;;;;;;;27.95;20.63;;;;;;;8.18;48.45;102218.94;5059175;28;20426;-77
2022/12/29 11:14:03;;;;;;;26.52;17.13;;;;;;;8.04;48.71;102214.72;5053169;28;20491;-78
2022/12/29 11:16:32;;;;;;;25.97;17.20;;;;;;;8.08;48.70;102209.22;5053332;28;20396;-78
2022/12/29 11:18:58;;;;;;;28.20;17.98;;;;;;;8.17;48.75;102211.97;5052081;28;20457;-78
2022/12/29 11:21:26;;;;;;;24.85;17.92;;;;;;;8.25;48.29;102198.19;5054555;28;20729;-78
2022/12/29 11:23:58;;;;;;;25.58;16.27;;;;;;;8.34;48.64;102207.22;5054252;28;20380;-78
2022/12/29 11:26:24;;;;;;;31.08;19.30;;;;;;;8.32;48.51;102195.91;5054056;28;20952;-77
2022/12/29 11:29:08;;;;;;;23.98;15.63;;;;;;;8.33;48.45;102185.22;5050791;28;20387;-77
2022/12/29 11:31:42;;;;;;;22.58;14.40;;;;;;;8.38;48.95;102187.53;5054047;28;20380;-77
2022/12/29 11:34:08;;;;;;;21.88;15.55;;;;;;;8.53;48.04;102177.56;5047639;28;20484;-77
2022/12/29 11:36:35;;;;;;;22.48;14.38;;;;;;;8.51;48.36;102164.47;5054919;28;20456;-77
2022/12/29 11:39:01;;;;;;;21.17;13.37;;;;;;;8.59;48.36;102179.75;5055561;28;20849;-77
2022/12/29 11:41:31;;;;;;;22.60;15.27;;;;;;;8.59;48.63;102170.00;5057032;28;20428;-78
2022/12/29 11:44:00;;;;;;;26.85;20.02;;;;;;;8.71;48.60;102164.72;5060366;28;20393;-78
2022/12/29 11:46:31;;;;;;;32.75;28.25;;;;;;;8.77;48.62;102162.44;5055571;28;20387;-78
2022/12/29 11:49:00;;;;;;;41.28;37.08;;;;;;;8.92;48.41;102167.44;5043482;28;20714;-78
2022/12/29 11:51:43;;;;;;;28.33;17.03;;;;;;;8.88;47.90;102158.91;5053695;28;20380;-78
2022/12/29 11:54:16;;;;;;;34.28;28.35;;;;;;;8.91;48.32;102157.81;5053851;28;20458;-78
2022/12/29 11:56:43;;;;;;;27.25;18.35;;;;;;;8.86;48.02;102152.06;5052876;28;20384;-77
2022/12/29 11:59:27;;;;;;;29.08;19.35;;;;;;;8.70;48.23;102141.91;5055470;28;20419;-80
2022/12/29 12:01:53;;;;;;;34.58;22.83;;;;;;;8.71;48.63;102141.75;5050961;28;20472;-77